Weather at Dr. Antonio Nicolás Briceño Airport

Public forecast

Using degrees Celsius for public forecast. Weather courtesy of forecast.io.

Closest aviation weather report (METAR) to Dr. Antonio Nicolás Briceño Airport

Report is more than 6 hours old.

Closest report is Barquisimeto International Airport, 83.9 nm (155.4 km) ENE.

2024/06/18 10:54 (retrieved 18 hours ago)

SVBM 181054Z /////KT 9999 FEW030 BKN050 Q1014

Closest aviation forecast (TAF) to Dr. Antonio Nicolás Briceño Airport

Forecast is more than 6 hours old.

Closest forecast is Barquisimeto International Airport, 83.9 nm (155.4 km) ENE.

2024/06/18 18:18 (retrieved 11 hours ago)

TAF TAF SVBM 181437Z 1818/1918 TAF SVBM 181615Z 1818/1918 09010KT 4000 TSSH FEW013 CB BKN060 TX32/1800Z TN21/0800Z BECMG 1822/1900 10008KT 2000 VCTSRA BKN013 CB